createdAt,value
2022-12-08T00:01:35.936Z,98375.50
2022-12-08T00:04:05.339Z,98367.38
2022-12-08T00:06:54.193Z,98360.41
2022-12-08T00:09:24.928Z,98354.84
2022-12-08T00:11:56.192Z,98352.59
2022-12-08T00:14:26.218Z,98333.56
2022-12-08T00:16:54.721Z,98332.28
2022-12-08T00:19:23.534Z,98339.34
2022-12-08T00:21:53.527Z,98321.63
2022-12-08T00:24:22.567Z,98321.00
2022-12-08T00:26:50.517Z,98313.66
2022-12-08T00:29:19.165Z,98312.66
2022-12-08T00:31:47.407Z,98318.00
2022-12-08T00:34:16.053Z,98322.53
2022-12-08T00:36:44.741Z,98313.19
2022-12-08T00:39:15.286Z,98312.25
2022-12-08T00:42:00.507Z,98313.13
2022-12-08T00:44:28.766Z,98307.53
2022-12-08T00:46:57.019Z,98306.56
2022-12-08T00:49:25.475Z,98313.84
2022-12-08T00:51:53.687Z,98306.84
2022-12-08T00:54:24.063Z,98309.88
2022-12-08T00:56:52.389Z,98310.25
2022-12-08T00:59:20.384Z,98307.44
2022-12-08T01:01:49.067Z,98298.84
2022-12-08T01:04:19.320Z,98305.16
2022-12-08T01:06:47.969Z,98300.03
2022-12-08T01:09:17.725Z,98292.91
2022-12-08T01:11:47.866Z,98306.75
2022-12-08T01:14:16.177Z,98296.38
2022-12-08T01:16:45.028Z,98306.91
2022-12-08T01:19:15.112Z,98303.09
2022-12-08T01:21:44.067Z,98299.53
2022-12-08T01:24:13.250Z,98308.22
2022-12-08T01:26:41.658Z,98312.50
2022-12-08T01:29:12.089Z,98313.25
2022-12-08T01:31:40.728Z,98297.59
2022-12-08T01:34:09.224Z,98288.91
2022-12-08T01:36:38.540Z,98301.44
2022-12-08T01:39:08.853Z,98299.69
2022-12-08T01:41:38.651Z,98299.44
2022-12-08T01:44:39.827Z,98300.66
2022-12-08T01:47:09.873Z,98301.16
2022-12-08T01:49:38.101Z,98289.81
2022-12-08T01:52:12.513Z,98294.16
2022-12-08T01:54:45.061Z,98301.34
2022-12-08T01:57:15.610Z,98289.81
2022-12-08T01:59:49.377Z,98302.16
2022-12-08T02:02:18.787Z,98303.09
2022-12-08T02:04:46.732Z,98294.09
2022-12-08T02:07:17.397Z,98290.09
2022-12-08T02:09:46.220Z,98288.22
2022-12-08T02:12:14.505Z,98276.13
2022-12-08T02:14:42.472Z,98271.22
2022-12-08T02:17:28.629Z,98267.66
2022-12-08T02:20:17.820Z,98270.63
2022-12-08T02:22:55.893Z,98267.66
2022-12-08T02:25:34.715Z,98274.59
2022-12-08T02:28:19.025Z,98267.66
2022-12-08T02:30:55.257Z,98269.16
2022-12-08T02:34:00.604Z,98271.06
2022-12-08T02:36:36.659Z,98264.13
2022-12-08T02:39:12.589Z,98255.25
2022-12-08T02:41:46.838Z,98242.56
2022-12-08T02:44:23.068Z,98235.28
2022-12-08T02:46:55.547Z,98242.56
2022-12-08T02:49:29.302Z,98241.94
2022-12-08T02:52:07.736Z,98234.03
2022-12-08T02:54:37.358Z,98225.16
2022-12-08T02:57:18.279Z,98230.56
2022-12-08T03:00:03.819Z,98226.44
2022-12-08T03:02:46.648Z,98224.91
2022-12-08T03:05:32.632Z,98224.03
2022-12-08T03:08:09.811Z,98224.69
2022-12-08T03:10:43.295Z,98206.88
2022-12-08T03:13:14.875Z,98213.03
2022-12-08T03:15:46.411Z,98208.28
2022-12-08T03:18:17.808Z,98212.75
2022-12-08T03:20:47.315Z,98203.94
2022-12-08T03:23:18.511Z,98188.91
2022-12-08T03:25:51.650Z,98197.59
2022-12-08T03:28:19.571Z,98194.13
2022-12-08T03:30:50.868Z,98178.00
2022-12-08T03:33:24.899Z,98176.06
2022-12-08T03:35:54.440Z,98182.44
2022-12-08T03:38:23.968Z,98189.72
2022-12-08T03:41:05.932Z,98179.81
2022-12-08T03:43:34.837Z,98180.91
2022-12-08T03:46:03.081Z,98180.25
2022-12-08T03:48:31.120Z,98167.94
2022-12-08T03:50:58.984Z,98174.47
2022-12-08T03:53:28.411Z,98164.75
2022-12-08T03:55:56.362Z,98167.50
2022-12-08T03:58:24.293Z,98163.53
2022-12-08T04:00:52.085Z,98149.09
2022-12-08T04:03:20.054Z,98166.16
2022-12-08T04:05:48.165Z,98169.09
2022-12-08T04:08:16.238Z,98162.22
2022-12-08T04:10:45.591Z,98164.22
2022-12-08T04:13:13.349Z,98164.19
2022-12-08T04:15:41.381Z,98155.72
2022-12-08T04:18:09.266Z,98155.16
2022-12-08T04:20:40.375Z,98155.50
2022-12-08T04:23:08.510Z,98132.09
2022-12-08T04:25:37.285Z,98141.19
2022-12-08T04:28:07.192Z,98131.63
2022-12-08T04:30:35.678Z,98138.44
2022-12-08T04:33:04.165Z,98129.69
2022-12-08T04:35:32.455Z,98124.13
2022-12-08T04:38:00.411Z,98133.19
2022-12-08T04:40:28.221Z,98136.25
2022-12-08T04:42:56.043Z,98121.81
2022-12-08T04:45:25.387Z,98128.72
2022-12-08T04:47:53.381Z,98119.75
2022-12-08T04:50:21.482Z,98108.22
2022-12-08T04:52:49.319Z,98108.09
2022-12-08T04:55:17.260Z,98116.59
2022-12-08T04:57:45.137Z,98108.59
2022-12-08T05:00:14.242Z,98095.47
2022-12-08T05:02:43.752Z,98107.94
2022-12-08T05:05:11.707Z,98101.31
2022-12-08T05:07:39.761Z,98113.28
2022-12-08T05:10:09.105Z,98111.72
2022-12-08T05:12:37.001Z,98112.44
2022-12-08T05:15:05.653Z,98092.19
2022-12-08T05:17:33.488Z,98106.84
2022-12-08T05:20:03.556Z,98098.84
2022-12-08T05:22:31.557Z,98106.97
2022-12-08T05:24:59.509Z,98102.50
2022-12-08T05:27:27.764Z,98097.28
2022-12-08T05:29:55.586Z,98091.34
2022-12-08T05:32:23.450Z,98096.91
2022-12-08T05:34:51.449Z,98095.09
2022-12-08T05:37:20.783Z,98079.81
2022-12-08T05:39:48.645Z,98087.34
2022-12-08T05:42:21.740Z,98076.28
2022-12-08T05:44:52.436Z,98088.16
2022-12-08T05:47:20.369Z,98076.19
2022-12-08T05:49:48.350Z,98072.91
2022-12-08T05:52:17.025Z,98064.38
2022-12-08T05:54:46.381Z,98073.38
2022-12-08T05:57:14.229Z,98069.00
2022-12-08T05:59:42.164Z,98056.63
2022-12-08T06:02:10.287Z,98068.75
2022-12-08T06:04:38.355Z,98048.50
2022-12-08T06:07:06.336Z,98060.75
2022-12-08T06:09:34.300Z,98064.25
2022-12-08T06:12:03.906Z,98042.69
2022-12-08T06:14:31.832Z,98051.38
2022-12-08T06:16:59.931Z,98040.84
2022-12-08T06:19:27.896Z,98046.19
2022-12-08T06:21:55.740Z,98045.31
2022-12-08T06:24:23.616Z,98036.47
2022-12-08T06:26:51.505Z,98029.56
2022-12-08T06:29:20.794Z,98037.44
2022-12-08T06:31:48.894Z,98033.19
2022-12-08T06:34:16.750Z,98038.19
2022-12-08T06:36:44.598Z,98035.16
2022-12-08T06:39:12.755Z,98041.56
2022-12-08T06:41:54.517Z,98036.34
2022-12-08T06:44:24.016Z,98047.25
2022-12-08T06:46:51.828Z,98028.09
2022-12-08T06:49:19.732Z,98029.69
2022-12-08T06:51:47.611Z,98014.13
2022-12-08T06:54:15.498Z,98017.56
2022-12-08T06:56:43.354Z,98017.06
2022-12-08T06:59:11.503Z,98005.16
2022-12-08T07:01:40.972Z,98003.22
2022-12-08T07:04:08.839Z,98012.44
2022-12-08T07:06:36.896Z,98007.47
2022-12-08T07:09:04.923Z,98002.13
2022-12-08T07:11:32.948Z,97994.34
2022-12-08T07:14:02.889Z,98011.00
2022-12-08T07:16:30.887Z,98027.00
2022-12-08T07:19:00.598Z,98004.19
2022-12-08T07:21:28.474Z,98022.63
2022-12-08T07:23:58.061Z,98025.19
2022-12-08T07:26:26.836Z,98030.75
2022-12-08T07:28:54.774Z,98025.56
2022-12-08T07:31:25.196Z,98004.69
2022-12-08T07:33:54.234Z,98021.91
2022-12-08T07:36:24.336Z,98033.06
2022-12-08T07:38:53.338Z,98024.81
2022-12-08T07:41:23.776Z,98026.41
2022-12-08T07:43:52.043Z,98048.81
2022-12-08T07:46:23.006Z,98045.44
2022-12-08T07:48:52.367Z,98034.53
2022-12-08T07:51:20.315Z,98055.44
2022-12-08T07:53:54.157Z,98057.06
2022-12-08T07:56:23.217Z,98069.38
2022-12-08T07:58:51.119Z,98065.84
2022-12-08T08:01:25.171Z,98066.78
2022-12-08T08:03:54.554Z,98047.56
2022-12-08T08:06:23.063Z,98054.34
2022-12-08T08:08:53.048Z,98060.75
2022-12-08T08:11:22.082Z,98064.81
2022-12-08T08:13:50.815Z,98062.88
2022-12-08T08:16:19.962Z,98060.81
2022-12-08T08:18:48.273Z,98057.03
2022-12-08T08:21:43.768Z,98058.50
2022-12-08T08:24:06.320Z,98063.81
2022-12-08T08:26:34.178Z,98061.75
2022-12-08T08:29:02.236Z,98073.75
2022-12-08T08:31:30.368Z,98061.19
2022-12-08T08:34:06.038Z,98061.91
2022-12-08T08:36:34.711Z,98066.47
2022-12-08T08:39:02.681Z,98075.47
2022-12-08T08:41:32.303Z,98065.16
2022-12-08T08:44:00.289Z,98063.59
2022-12-08T08:46:28.325Z,98074.44
2022-12-08T08:48:56.255Z,98074.22
2022-12-08T08:51:24.418Z,98072.28
2022-12-08T08:53:52.212Z,98072.28
2022-12-08T08:56:20.561Z,98076.63
2022-12-08T08:58:50.901Z,98074.63
2022-12-08T09:01:21.094Z,98067.81
2022-12-08T09:03:49.134Z,98071.50
2022-12-08T09:06:17.346Z,98082.44
2022-12-08T09:08:45.631Z,98072.28
2022-12-08T09:11:14.320Z,98067.19
2022-12-08T09:13:42.800Z,98070.81
2022-12-08T09:16:13.149Z,98042.16
2022-12-08T09:18:41.143Z,98052.69
2022-12-08T09:21:11.660Z,98073.16
2022-12-08T09:23:40.020Z,98076.16
2022-12-08T09:26:08.284Z,98066.00
2022-12-08T09:28:36.521Z,98071.13
2022-12-08T09:31:05.032Z,98067.09
2022-12-08T09:33:34.352Z,98069.41
2022-12-08T09:36:04.176Z,98065.16
2022-12-08T09:38:32.381Z,98048.59
2022-12-08T09:41:02.938Z,98054.16
2022-12-08T09:43:59.915Z,98064.19
2022-12-08T09:46:31.800Z,98057.28
2022-12-08T09:49:03.264Z,98057.53
2022-12-08T09:51:37.795Z,98044.44
2022-12-08T09:54:09.695Z,98040.78
2022-12-08T09:56:38.836Z,98032.78
2022-12-08T09:59:17.201Z,98033.25
2022-12-08T10:01:45.231Z,98023.84
2022-12-08T10:04:23.396Z,98018.50
2022-12-08T10:07:01.484Z,98022.13
2022-12-08T10:09:39.728Z,98015.69
2022-12-08T10:12:17.335Z,98014.50
2022-12-08T10:14:55.163Z,98020.88
2022-12-08T10:17:27.029Z,98018.47
2022-12-08T10:20:01.637Z,98014.09
2022-12-08T10:22:39.846Z,98012.16
2022-12-08T10:25:18.109Z,98005.84
2022-12-08T10:27:49.276Z,98003.44
2022-12-08T10:30:20.826Z,98001.34
2022-12-08T10:32:51.965Z,97992.88
2022-12-08T10:35:23.605Z,98004.16
2022-12-08T10:37:57.676Z,97992.75
2022-12-08T10:40:28.154Z,97986.72
2022-12-08T10:42:58.876Z,97988.03
2022-12-08T10:45:29.354Z,97987.94
2022-12-08T10:48:02.892Z,97986.97
2022-12-08T10:50:35.677Z,97980.91
2022-12-08T10:53:13.058Z,97981.25
2022-12-08T10:55:44.308Z,97962.47
2022-12-08T10:58:35.606Z,97974.22
2022-12-08T11:01:08.167Z,97962.72
2022-12-08T11:03:39.734Z,97964.03
2022-12-08T11:06:16.250Z,97977.00
2022-12-08T11:08:51.584Z,97969.00
2022-12-08T11:11:25.877Z,97959.19
2022-12-08T11:13:57.738Z,97943.66
2022-12-08T11:16:25.996Z,97936.38
2022-12-08T11:18:58.986Z,97919.00
2022-12-08T11:21:37.196Z,97918.44
2022-12-08T11:24:23.582Z,97915.63
2022-12-08T11:26:55.468Z,97899.84
2022-12-08T11:29:23.439Z,97887.47
2022-12-08T11:31:55.754Z,97871.69
2022-12-08T11:34:33.220Z,97852.13
2022-12-08T11:37:04.931Z,97866.84
2022-12-08T11:39:36.375Z,97852.28
2022-12-08T11:42:08.239Z,97852.31
2022-12-08T11:44:42.894Z,97841.63
2022-12-08T11:47:19.006Z,97842.13
2022-12-08T11:49:50.478Z,97838.00
2022-12-08T11:52:27.631Z,97834.81
2022-12-08T11:55:00.974Z,97835.53
2022-12-08T11:57:30.877Z,97840.38
2022-12-08T11:59:59.871Z,97833.81
2022-12-08T12:02:30.090Z,97832.66
2022-12-08T12:05:03.520Z,97822.69
2022-12-08T12:07:52.638Z,97816.72
2022-12-08T12:10:37.511Z,97838.94
2022-12-08T12:13:14.295Z,97844.06
2022-12-08T12:16:16.467Z,97840.69
2022-12-08T12:18:47.084Z,97836.75
2022-12-08T12:21:20.374Z,97839.44
2022-12-08T12:23:55.299Z,97804.75
2022-12-08T12:26:26.382Z,97905.03
2022-12-08T12:28:59.066Z,97928.25
2022-12-08T12:31:31.001Z,97931.41
2022-12-08T12:34:13.287Z,97955.75
2022-12-08T12:36:53.871Z,97946.44
2022-12-08T12:39:29.400Z,97966.31
2022-12-08T12:41:59.614Z,97958.56
2022-12-08T12:44:43.144Z,97977.00
2022-12-08T12:47:35.407Z,97969.00
2022-12-08T12:50:09.035Z,97968.50
2022-12-08T12:52:47.133Z,97963.66
2022-12-08T12:55:52.103Z,97976.50
2022-12-08T12:58:41.063Z,97966.81
2022-12-08T13:01:46.280Z,97958.31
2022-12-08T13:04:14.448Z,97956.16
2022-12-08T13:06:45.454Z,97956.59
2022-12-08T13:09:23.029Z,97944.88
2022-12-08T13:11:55.705Z,97946.66
2022-12-08T13:14:32.701Z,97941.81
2022-12-08T13:17:02.952Z,97949.34
2022-12-08T13:19:34.098Z,97936.00
2022-12-08T13:22:02.580Z,97949.59
2022-12-08T13:24:35.038Z,97950.34
2022-12-08T13:27:35.565Z,97945.47
2022-12-08T13:30:50.086Z,97927.03
2022-12-08T13:33:24.472Z,97930.78
2022-12-08T13:36:06.368Z,97950.44
2022-12-08T13:38:37.802Z,97946.78
2022-12-08T13:41:13.879Z,97956.31
2022-12-08T13:44:10.603Z,97965.31
2022-12-08T13:56:51.420Z,97957.78
2022-12-08T13:58:21.186Z,97952.09
2022-12-08T14:01:03.564Z,97958.13
2022-12-08T14:03:32.101Z,97955.97
2022-12-08T14:06:15.789Z,97949.09
2022-12-08T14:09:06.919Z,97943.75
2022-12-08T14:11:37.610Z,97937.47
2022-12-08T14:14:08.678Z,97929.94
2022-12-08T14:16:40.923Z,97917.56
2022-12-08T14:19:18.892Z,97931.63
2022-12-08T14:21:54.908Z,97926.78
2022-12-08T14:24:23.841Z,97924.50
2022-12-08T14:26:54.392Z,97922.44
2022-12-08T14:29:40.868Z,97918.53
2022-12-08T14:32:22.570Z,97923.78
2022-12-08T14:34:59.988Z,97928.47
2022-12-08T14:37:31.082Z,97940.19
2022-12-08T14:40:02.559Z,97936.94
2022-12-08T14:42:31.397Z,97918.19
2022-12-08T14:45:02.275Z,97922.91
2022-12-08T14:47:33.364Z,97923.63
2022-12-08T14:50:02.517Z,97932.84
2022-12-08T14:52:31.463Z,97915.25
2022-12-08T14:55:00.156Z,97920.72
2022-12-08T14:57:36.425Z,97922.41
2022-12-08T15:00:12.386Z,97907.50
2022-12-08T15:02:47.396Z,97915.13
2022-12-08T15:05:18.026Z,97912.13
2022-12-08T15:07:49.566Z,97905.91
2022-12-08T15:10:26.465Z,97895.25
2022-12-08T15:12:59.547Z,97902.16
2022-12-08T15:15:27.822Z,97894.28
2022-12-08T15:18:05.450Z,97899.13
2022-12-08T15:20:41.522Z,97911.50
2022-12-08T15:23:21.434Z,97924.97
2022-12-08T15:25:49.919Z,97928.47
2022-12-08T15:28:21.261Z,97930.31
2022-12-08T15:30:51.778Z,97930.41
2022-12-08T15:33:21.352Z,97931.16
2022-12-08T15:35:50.497Z,97945.56
2022-12-08T15:38:21.629Z,97942.06
2022-12-08T15:40:49.702Z,97934.78
2022-12-08T15:43:17.508Z,97945.66
2022-12-08T15:45:58.012Z,97936.22
2022-12-08T15:48:31.113Z,97934.53
2022-12-08T15:50:59.822Z,97941.22
2022-12-08T15:53:27.953Z,97949.56
2022-12-08T15:58:59.573Z,97939.50
2022-12-08T16:01:28.254Z,97950.44
2022-12-08T16:09:39.395Z,97947.41
2022-12-08T16:12:57.175Z,97962.91
2022-12-08T16:15:50.035Z,97949.84
2022-12-08T16:18:15.097Z,97925.94
2022-12-08T16:21:07.492Z,97888.84
2022-12-08T16:23:48.231Z,97874.88
2022-12-08T16:29:07.870Z,97835.97
2022-12-08T16:31:35.991Z,97821.78
2022-12-08T16:34:03.857Z,97806.34
2022-12-08T16:36:33.296Z,97797.38
2022-12-08T16:39:01.193Z,97786.88
2022-12-08T16:41:46.791Z,97787.09
2022-12-08T16:44:14.660Z,97768.91
2022-12-08T16:46:42.861Z,97761.88
2022-12-08T16:49:11.050Z,97758.81
2022-12-08T16:51:43.284Z,97763.41
2022-12-08T16:54:11.252Z,97758.66
2022-12-08T16:56:39.159Z,97776.88
2022-12-08T16:59:07.113Z,97791.69
2022-12-08T17:01:35.861Z,97787.22
2022-12-08T17:06:53.260Z,97788.16
2022-12-08T17:09:21.542Z,97778.91
2022-12-08T17:11:49.429Z,97791.53
2022-12-08T17:14:17.453Z,97795.53
2022-12-08T17:16:46.714Z,97791.28
2022-12-08T17:19:15.821Z,97802.81
2022-12-08T17:21:44.495Z,97801.13
2022-12-08T17:24:18.590Z,97806.22
2022-12-08T17:26:49.897Z,97806.69
2022-12-08T17:29:18.751Z,97814.50
2022-12-08T17:31:46.891Z,97870.88
2022-12-08T17:34:15.136Z,97887.72
2022-12-08T17:36:43.282Z,97889.66
2022-12-08T17:39:18.383Z,97895.75
2022-12-08T17:41:47.226Z,97901.69
2022-12-08T17:44:17.040Z,97894.03
2022-12-08T17:46:52.184Z,97895.00
2022-12-08T17:49:22.703Z,97894.91
2022-12-08T17:51:53.078Z,97891.81
2022-12-08T17:54:22.506Z,97900.34
2022-12-08T17:56:50.476Z,97911.50
2022-12-08T17:59:19.576Z,97908.09
2022-12-08T18:01:47.748Z,97907.63
2022-12-08T18:04:16.643Z,97910.06
2022-12-08T18:06:44.882Z,97913.09
2022-12-08T18:09:12.997Z,97920.50
2022-12-08T18:11:43.045Z,97916.84
2022-12-08T18:14:12.436Z,97919.03
2022-12-08T18:16:42.115Z,97912.00
2022-12-08T18:19:11.014Z,97920.84
2022-12-08T18:21:39.313Z,97925.59
2022-12-08T18:24:08.178Z,97928.75
2022-12-08T18:26:36.653Z,97929.94
2022-12-08T18:29:05.955Z,97917.09
2022-12-08T18:31:34.229Z,97934.53
2022-12-08T18:34:02.120Z,97931.78
2022-12-08T18:36:30.004Z,97935.75
2022-12-08T18:38:57.920Z,97935.75
2022-12-08T18:41:26.881Z,97944.59
2022-12-08T18:43:55.559Z,97938.19
2022-12-08T18:46:25.869Z,97949.91
2022-12-08T18:48:54.263Z,97957.06
2022-12-08T18:51:24.259Z,97950.78
2022-12-08T18:53:53.703Z,97944.84
2022-12-08T18:56:24.659Z,97954.41
2022-12-08T18:58:52.607Z,97952.19
2022-12-08T19:01:20.636Z,97959.25
2022-12-08T19:04:19.984Z,97962.88
2022-12-08T19:06:40.020Z,97968.41
2022-12-08T19:09:08.827Z,97970.56
2022-12-08T19:11:36.886Z,97960.69
2022-12-08T19:14:05.615Z,97966.25
2022-12-08T19:16:33.690Z,97978.09
2022-12-08T19:19:03.432Z,97968.19
2022-12-08T19:21:31.641Z,97980.97
2022-12-08T19:24:00.084Z,97979.28
2022-12-08T19:26:29.383Z,97982.16
2022-12-08T19:28:58.658Z,97989.66
2022-12-08T19:31:27.184Z,97988.53
2022-12-08T19:33:58.072Z,97980.53
2022-12-08T19:36:27.850Z,97979.91
2022-12-08T19:39:13.061Z,97984.28
2022-12-08T19:42:00.982Z,97979.50
2022-12-08T19:44:47.860Z,97978.31
2022-12-08T19:47:16.214Z,97982.16
2022-12-08T19:49:44.217Z,97989.16
2022-12-08T19:52:13.716Z,97985.41
2022-12-08T19:54:41.668Z,97983.22
2022-12-08T19:57:10.688Z,97981.50
2022-12-08T19:59:39.282Z,97977.63
2022-12-08T20:02:07.742Z,97985.34
2022-12-08T20:04:35.876Z,98002.22
2022-12-08T20:07:04.392Z,98008.44
2022-12-08T20:09:33.678Z,98010.66
2022-12-08T20:12:01.610Z,98014.72
2022-12-08T20:14:29.515Z,98007.59
2022-12-08T20:16:57.507Z,98013.53
2022-12-08T20:19:25.512Z,98015.44
2022-12-08T20:21:53.435Z,98016.50
2022-12-08T20:24:21.866Z,98017.06
2022-12-08T20:26:51.460Z,98018.66
2022-12-08T20:29:19.385Z,98013.94
2022-12-08T20:31:47.462Z,98023.31
2022-12-08T20:34:16.593Z,98013.81
2022-12-08T20:36:44.822Z,98016.81
2022-12-08T20:39:14.565Z,98013.09
2022-12-08T20:41:42.557Z,98006.44
2022-12-08T20:44:12.237Z,98016.03
2022-12-08T20:46:44.981Z,98003.50
2022-12-08T20:49:15.854Z,98000.72
2022-12-08T20:51:44.469Z,98009.31
2022-12-08T20:54:12.572Z,98006.00
2022-12-08T20:56:47.921Z,98004.72
2022-12-08T20:59:18.649Z,98010.63
2022-12-08T21:01:46.844Z,98013.63
2022-12-08T21:04:15.025Z,98010.72
2022-12-08T21:06:43.192Z,98004.09
2022-12-08T21:09:11.393Z,98011.03
2022-12-08T21:11:39.589Z,98012.97
2022-12-08T21:14:08.007Z,97994.59
2022-12-08T21:16:37.494Z,97995.53
2022-12-08T21:19:06.145Z,97994.59
2022-12-08T21:21:34.608Z,98000.13
2022-12-08T21:24:03.874Z,97988.28
2022-12-08T21:26:32.445Z,98000.59
2022-12-08T21:29:00.394Z,97990.94
2022-12-08T21:31:31.590Z,97997.47
2022-12-08T21:34:02.534Z,97995.94
2022-12-08T21:36:31.079Z,97995.78
2022-12-08T21:39:00.716Z,97984.22
2022-12-08T21:41:47.704Z,97978.16
2022-12-08T21:44:18.737Z,97984.50
2022-12-08T21:46:46.903Z,97985.41
2022-12-08T21:49:16.433Z,97974.31
2022-12-08T21:51:44.729Z,97975.91
2022-12-08T21:54:18.215Z,97975.91
2022-12-08T21:56:47.716Z,97988.06
2022-12-08T21:59:16.403Z,97978.91
2022-12-08T22:01:45.173Z,97984.22
2022-12-08T22:04:13.727Z,97989.94
2022-12-08T22:06:43.928Z,97994.13
2022-12-08T22:09:13.538Z,97990.81
2022-12-08T22:11:42.134Z,98001.16
2022-12-08T22:14:14.385Z,97997.75
2022-12-08T22:16:43.447Z,97987.00
2022-12-08T22:19:12.490Z,97996.13
2022-12-08T22:21:42.061Z,97978.38
2022-12-08T22:24:10.703Z,97993.22
2022-12-08T22:26:38.653Z,97998.72
2022-12-08T22:29:06.794Z,98013.00
2022-12-08T22:31:34.934Z,98012.06
2022-12-08T22:34:02.924Z,98013.38
2022-12-08T22:36:30.971Z,98018.13
2022-12-08T22:39:00.357Z,98036.59
2022-12-08T22:41:28.484Z,98035.44
2022-12-08T22:43:56.460Z,98048.41
2022-12-08T22:46:25.772Z,98045.94
2022-12-08T22:48:55.389Z,98048.00
2022-12-08T22:51:23.398Z,98057.78
2022-12-08T22:53:51.986Z,98059.47
2022-12-08T22:56:21.540Z,98048.59
2022-12-08T22:58:49.891Z,98056.81
2022-12-08T23:01:24.552Z,98046.22
2022-12-08T23:03:52.779Z,98053.31
2022-12-08T23:06:21.096Z,98053.06
2022-12-08T23:08:49.326Z,98050.09
2022-12-08T23:11:17.742Z,98052.91
2022-12-08T23:13:47.326Z,98062.47
2022-12-08T23:16:15.259Z,98059.06
2022-12-08T23:18:44.553Z,98066.97
2022-12-08T23:21:15.184Z,98068.19
2022-12-08T23:23:43.822Z,98075.69
2022-12-08T23:26:17.979Z,98064.34
2022-12-08T23:28:47.820Z,98061.69
2022-12-08T23:31:16.432Z,98054.78
2022-12-08T23:33:44.873Z,98063.56
2022-12-08T23:36:13.749Z,98053.94
2022-12-08T23:38:42.088Z,98048.56
2022-12-08T23:41:13.578Z,98043.69
2022-12-08T23:43:45.537Z,98041.63
2022-12-08T23:46:16.391Z,98031.72
2022-12-08T23:48:44.679Z,98022.78
2022-12-08T23:51:13.385Z,98010.75
2022-12-08T23:53:41.567Z,98008.41
2022-12-08T23:56:11.216Z,98016.81
2022-12-08T23:58:40.221Z,98020.03
